sensor_id;sensor_type;location;lat;lon;timestamp;temperature;humidity
814;DHT22;389;48.710;9.392;2022-08-19T01:57:49;21.40;99.60
814;DHT22;389;48.710;9.392;2022-08-19T02:53:11;21.10;99.70
814;DHT22;389;48.710;9.392;2022-08-19T02:55:43;21.10;98.70
814;DHT22;389;48.710;9.392;2022-08-19T02:58:09;21.10;98.70
814;DHT22;389;48.710;9.392;2022-08-19T03:00:35;21.10;98.60
814;DHT22;389;48.710;9.392;2022-08-19T03:03:00;21.10;98.90
814;DHT22;389;48.710;9.392;2022-08-19T03:05:26;21.10;98.00
814;DHT22;389;48.710;9.392;2022-08-19T03:07:52;21.20;98.40
814;DHT22;389;48.710;9.392;2022-08-19T03:10:18;21.10;99.00
814;DHT22;389;48.710;9.392;2022-08-19T03:12:44;21.10;98.60
814;DHT22;389;48.710;9.392;2022-08-19T03:15:11;21.30;98.70
814;DHT22;389;48.710;9.392;2022-08-19T03:17:37;21.20;98.90
814;DHT22;389;48.710;9.392;2022-08-19T03:20:03;21.10;99.00
814;DHT22;389;48.710;9.392;2022-08-19T03:22:29;21.10;99.00
814;DHT22;389;48.710;9.392;2022-08-19T03:24:55;21.10;99.10
814;DHT22;389;48.710;9.392;2022-08-19T03:27:21;21.10;99.10
814;DHT22;389;48.710;9.392;2022-08-19T03:29:46;21.10;99.10
814;DHT22;389;48.710;9.392;2022-08-19T03:32:13;21.10;99.10
814;DHT22;389;48.710;9.392;2022-08-19T03:34:39;21.00;99.00
814;DHT22;389;48.710;9.392;2022-08-19T03:37:09;21.00;99.60
814;DHT22;389;48.710;9.392;2022-08-19T03:39:37;21.00;99.90
814;DHT22;389;48.710;9.392;2022-08-19T03:42:04;21.00;99.90
814;DHT22;389;48.710;9.392;2022-08-19T03:44:31;21.00;99.90
814;DHT22;389;48.710;9.392;2022-08-19T03:46:59;21.00;99.90
814;DHT22;389;48.710;9.392;2022-08-19T03:49:28;21.00;99.90
814;DHT22;389;48.710;9.392;2022-08-19T03:51:56;20.90;99.90
814;DHT22;389;48.710;9.392;2022-08-19T03:54:24;20.90;99.90
814;DHT22;389;48.710;9.392;2022-08-19T03:56:51;20.90;99.90
814;DHT22;389;48.710;9.392;2022-08-19T03:59:28;20.90;99.90
814;DHT22;389;48.710;9.392;2022-08-19T04:01:56;20.90;99.90
814;DHT22;389;48.710;9.392;2022-08-19T04:04:22;20.80;99.90
814;DHT22;389;48.710;9.392;2022-08-19T04:06:47;20.80;99.90
814;DHT22;389;48.710;9.392;2022-08-19T04:09:14;20.80;99.90
814;DHT22;389;48.710;9.392;2022-08-19T04:11:44;20.90;99.90
814;DHT22;389;48.710;9.392;2022-08-19T04:14:16;20.80;99.90
814;DHT22;389;48.710;9.392;2022-08-19T04:16:42;20.70;99.90
814;DHT22;389;48.710;9.392;2022-08-19T04:19:10;20.80;99.90
814;DHT22;389;48.710;9.392;2022-08-19T04:21:36;20.70;99.90
814;DHT22;389;48.710;9.392;2022-08-19T04:24:02;20.70;99.90
814;DHT22;389;48.710;9.392;2022-08-19T04:26:32;20.70;99.90
814;DHT22;389;48.710;9.392;2022-08-19T04:29:00;20.60;99.90
814;DHT22;389;48.710;9.392;2022-08-19T04:31:29;20.80;99.90
814;DHT22;389;48.710;9.392;2022-08-19T04:33:57;20.60;99.90
814;DHT22;389;48.710;9.392;2022-08-19T04:36:27;20.70;99.90
814;DHT22;389;48.710;9.392;2022-08-19T04:39:01;20.70;99.90
814;DHT22;389;48.710;9.392;2022-08-19T04:41:27;20.70;99.40
814;DHT22;389;48.710;9.392;2022-08-19T04:44:12;20.70;99.30
814;DHT22;389;48.710;9.392;2022-08-19T04:46:38;20.80;99.10
814;DHT22;389;48.710;9.392;2022-08-19T04:49:05;20.90;99.00
814;DHT22;389;48.710;9.392;2022-08-19T04:51:32;20.90;98.80
814;DHT22;389;48.710;9.392;2022-08-19T04:53:57;20.90;98.60
814;DHT22;389;48.710;9.392;2022-08-19T04:56:24;21.00;98.40
814;DHT22;389;48.710;9.392;2022-08-19T04:58:53;20.90;98.60
814;DHT22;389;48.710;9.392;2022-08-19T05:01:23;21.10;98.20
814;DHT22;389;48.710;9.392;2022-08-19T05:03:49;20.90;98.00
814;DHT22;389;48.710;9.392;2022-08-19T05:06:17;21.00;98.10
814;DHT22;389;48.710;9.392;2022-08-19T05:08:43;21.10;98.00
814;DHT22;389;48.710;9.392;2022-08-19T05:13:38;21.10;97.90
814;DHT22;389;48.710;9.392;2022-08-19T05:16:04;21.10;97.90
814;DHT22;389;48.710;9.392;2022-08-19T05:18:29;21.10;97.80
814;DHT22;389;48.710;9.392;2022-08-19T05:21:16;21.20;97.70
814;DHT22;389;48.710;9.392;2022-08-19T05:24:00;21.20;97.50
814;DHT22;389;48.710;9.392;2022-08-19T05:26:27;21.20;97.50
814;DHT22;389;48.710;9.392;2022-08-19T05:28:54;21.20;97.50
814;DHT22;389;48.710;9.392;2022-08-19T05:31:20;21.20;97.50
814;DHT22;389;48.710;9.392;2022-08-19T05:33:46;21.20;97.50
814;DHT22;389;48.710;9.392;2022-08-19T05:36:12;21.20;97.50
814;DHT22;389;48.710;9.392;2022-08-19T05:38:38;21.30;97.50
814;DHT22;389;48.710;9.392;2022-08-19T05:41:09;21.30;97.50
814;DHT22;389;48.710;9.392;2022-08-19T05:43:35;21.30;97.70
814;DHT22;389;48.710;9.392;2022-08-19T05:46:03;21.40;97.40
814;DHT22;389;48.710;9.392;2022-08-19T05:48:30;21.30;97.30
814;DHT22;389;48.710;9.392;2022-08-19T05:50:56;21.30;97.20
814;DHT22;389;48.710;9.392;2022-08-19T05:53:23;21.40;97.30
814;DHT22;389;48.710;9.392;2022-08-19T05:55:49;21.30;97.00
814;DHT22;389;48.710;9.392;2022-08-19T05:58:14;21.40;97.00
814;DHT22;389;48.710;9.392;2022-08-19T06:00:43;21.30;96.90
814;DHT22;389;48.710;9.392;2022-08-19T06:03:09;21.30;97.00
814;DHT22;389;48.710;9.392;2022-08-19T06:05:35;21.30;97.00
814;DHT22;389;48.710;9.392;2022-08-19T06:08:01;21.30;97.00
814;DHT22;389;48.710;9.392;2022-08-19T06:10:27;21.30;97.00
814;DHT22;389;48.710;9.392;2022-08-19T06:12:53;21.40;96.90
814;DHT22;389;48.710;9.392;2022-08-19T06:15:19;21.40;96.90
814;DHT22;389;48.710;9.392;2022-08-19T06:17:49;21.50;96.90
814;DHT22;389;48.710;9.392;2022-08-19T06:20:15;21.40;97.00
814;DHT22;389;48.710;9.392;2022-08-19T06:22:45;21.50;97.10
814;DHT22;389;48.710;9.392;2022-08-19T06:25:12;21.50;97.00
814;DHT22;389;48.710;9.392;2022-08-19T06:27:38;21.50;97.00
814;DHT22;389;48.710;9.392;2022-08-19T06:30:05;21.50;97.30
814;DHT22;389;48.710;9.392;2022-08-19T06:32:30;21.60;97.60
814;DHT22;389;48.710;9.392;2022-08-19T06:34:56;21.60;97.90
814;DHT22;389;48.710;9.392;2022-08-19T06:37:22;21.60;97.90
814;DHT22;389;48.710;9.392;2022-08-19T06:39:48;21.70;98.20
814;DHT22;389;48.710;9.392;2022-08-19T06:42:14;21.60;98.20
814;DHT22;389;48.710;9.392;2022-08-19T06:44:43;21.60;98.20
814;DHT22;389;48.710;9.392;2022-08-19T06:47:14;21.60;98.40
814;DHT22;389;48.710;9.392;2022-08-19T06:49:41;21.50;98.10
814;DHT22;389;48.710;9.392;2022-08-19T06:52:07;21.50;98.60
814;DHT22;389;48.710;9.392;2022-08-19T06:54:33;21.50;98.30
814;DHT22;389;48.710;9.392;2022-08-19T06:57:00;21.40;98.80
814;DHT22;389;48.710;9.392;2022-08-19T06:59:28;21.50;99.20
814;DHT22;389;48.710;9.392;2022-08-19T07:01:59;21.40;99.10
814;DHT22;389;48.710;9.392;2022-08-19T07:04:28;21.30;99.00
814;DHT22;389;48.710;9.392;2022-08-19T07:07:00;21.30;98.90
814;DHT22;389;48.710;9.392;2022-08-19T07:09:27;21.30;99.00
814;DHT22;389;48.710;9.392;2022-08-19T07:11:53;21.30;99.20
814;DHT22;389;48.710;9.392;2022-08-19T07:14:22;21.30;99.50
814;DHT22;389;48.710;9.392;2022-08-19T07:16:49;21.30;99.40
814;DHT22;389;48.710;9.392;2022-08-19T07:19:16;21.20;99.60
814;DHT22;389;48.710;9.392;2022-08-19T07:21:42;21.30;99.30
814;DHT22;389;48.710;9.392;2022-08-19T07:24:07;21.30;99.20
814;DHT22;389;48.710;9.392;2022-08-19T07:26:38;21.30;99.20
814;DHT22;389;48.710;9.392;2022-08-19T07:29:07;21.30;99.60
814;DHT22;389;48.710;9.392;2022-08-19T07:31:33;21.40;99.80
814;DHT22;389;48.710;9.392;2022-08-19T07:34:04;21.30;99.70
814;DHT22;389;48.710;9.392;2022-08-19T07:36:34;21.30;99.20
814;DHT22;389;48.710;9.392;2022-08-19T07:39:04;21.30;99.40
814;DHT22;389;48.710;9.392;2022-08-19T07:41:30;21.30;99.50
814;DHT22;389;48.710;9.392;2022-08-19T07:43:57;21.40;99.30
814;DHT22;389;48.710;9.392;2022-08-19T07:46:23;21.40;99.20
814;DHT22;389;48.710;9.392;2022-08-19T07:48:50;21.50;99.30
814;DHT22;389;48.710;9.392;2022-08-19T07:51:20;21.40;99.40
814;DHT22;389;48.710;9.392;2022-08-19T07:53:47;21.40;99.40
814;DHT22;389;48.710;9.392;2022-08-19T07:56:15;21.40;99.50
814;DHT22;389;48.710;9.392;2022-08-19T07:58:44;21.40;99.40
814;DHT22;389;48.710;9.392;2022-08-19T08:01:13;21.40;99.20
814;DHT22;389;48.710;9.392;2022-08-19T08:03:39;21.40;99.20
814;DHT22;389;48.710;9.392;2022-08-19T08:06:23;21.40;99.50
814;DHT22;389;48.710;9.392;2022-08-19T08:09:08;21.40;99.30
814;DHT22;389;48.710;9.392;2022-08-19T08:11:39;21.40;99.30
814;DHT22;389;48.710;9.392;2022-08-19T08:14:05;21.40;99.30
814;DHT22;389;48.710;9.392;2022-08-19T08:16:38;21.50;99.60
814;DHT22;389;48.710;9.392;2022-08-19T08:19:05;21.40;99.90
814;DHT22;389;48.710;9.392;2022-08-19T08:21:31;21.40;99.70
814;DHT22;389;48.710;9.392;2022-08-19T08:23:57;21.40;99.70
814;DHT22;389;48.710;9.392;2022-08-19T08:26:23;21.50;99.90
814;DHT22;389;48.710;9.392;2022-08-19T08:28:49;21.60;99.90
814;DHT22;389;48.710;9.392;2022-08-19T08:31:15;21.60;99.90
814;DHT22;389;48.710;9.392;2022-08-19T08:33:40;21.60;99.90
814;DHT22;389;48.710;9.392;2022-08-19T08:36:08;21.60;99.90
814;DHT22;389;48.710;9.392;2022-08-19T08:38:35;21.60;99.90
814;DHT22;389;48.710;9.392;2022-08-19T08:41:12;21.60;99.90
814;DHT22;389;48.710;9.392;2022-08-19T08:43:46;21.70;99.90
814;DHT22;389;48.710;9.392;2022-08-19T08:46:24;21.90;99.90
814;DHT22;389;48.710;9.392;2022-08-19T08:51:51;22.10;99.90
814;DHT22;389;48.710;9.392;2022-08-19T08:54:20;22.20;99.50
814;DHT22;389;48.710;9.392;2022-08-19T08:56:47;22.30;98.90
814;DHT22;389;48.710;9.392;2022-08-19T08:59:28;22.40;98.90
814;DHT22;389;48.710;9.392;2022-08-19T09:01:54;22.40;98.70
814;DHT22;389;48.710;9.392;2022-08-19T09:04:19;22.50;98.20
814;DHT22;389;48.710;9.392;2022-08-19T09:07:14;22.40;98.20
814;DHT22;389;48.710;9.392;2022-08-19T09:09:49;22.50;98.30
814;DHT22;389;48.710;9.392;2022-08-19T09:12:34;22.50;97.90
814;DHT22;389;48.710;9.392;2022-08-19T09:15:07;22.50;98.00
814;DHT22;389;48.710;9.392;2022-08-19T09:17:34;22.50;98.30
814;DHT22;389;48.710;9.392;2022-08-19T09:20:21;22.50;98.00
814;DHT22;389;48.710;9.392;2022-08-19T09:22:48;22.50;98.10
814;DHT22;389;48.710;9.392;2022-08-19T09:25:17;22.50;98.30
814;DHT22;389;48.710;9.392;2022-08-19T09:27:43;22.60;98.20
814;DHT22;389;48.710;9.392;2022-08-19T09:30:34;22.50;97.70
814;DHT22;389;48.710;9.392;2022-08-19T09:33:00;22.60;97.60
814;DHT22;389;48.710;9.392;2022-08-19T09:35:27;22.70;98.30
814;DHT22;389;48.710;9.392;2022-08-19T09:37:54;22.60;97.60
814;DHT22;389;48.710;9.392;2022-08-19T09:40:20;22.60;97.60
814;DHT22;389;48.710;9.392;2022-08-19T09:42:46;22.60;97.70
814;DHT22;389;48.710;9.392;2022-08-19T09:45:14;22.60;98.00
814;DHT22;389;48.710;9.392;2022-08-19T09:47:40;22.50;98.10
814;DHT22;389;48.710;9.392;2022-08-19T09:50:08;22.50;97.90
814;DHT22;389;48.710;9.392;2022-08-19T09:52:35;22.50;97.80
814;DHT22;389;48.710;9.392;2022-08-19T09:55:06;22.50;98.10
814;DHT22;389;48.710;9.392;2022-08-19T09:57:32;22.50;98.40
814;DHT22;389;48.710;9.392;2022-08-19T09:59:58;22.40;98.40
814;DHT22;389;48.710;9.392;2022-08-19T10:02:23;22.50;98.70
814;DHT22;389;48.710;9.392;2022-08-19T10:04:50;22.50;98.90
814;DHT22;389;48.710;9.392;2022-08-19T10:07:34;22.50;99.00
814;DHT22;389;48.710;9.392;2022-08-19T10:10:00;22.60;99.20
814;DHT22;389;48.710;9.392;2022-08-19T10:12:26;22.60;99.30
814;DHT22;389;48.710;9.392;2022-08-19T10:14:52;22.70;99.40
814;DHT22;389;48.710;9.392;2022-08-19T10:17:19;22.70;99.50
814;DHT22;389;48.710;9.392;2022-08-19T10:19:45;22.70;99.50
814;DHT22;389;48.710;9.392;2022-08-19T10:22:11;22.80;99.50
814;DHT22;389;48.710;9.392;2022-08-19T10:24:39;22.70;99.60
814;DHT22;389;48.710;9.392;2022-08-19T10:27:05;22.70;99.50
814;DHT22;389;48.710;9.392;2022-08-19T10:29:31;22.70;99.60
814;DHT22;389;48.710;9.392;2022-08-19T10:32:01;22.70;99.60
814;DHT22;389;48.710;9.392;2022-08-19T10:34:28;22.70;99.70
814;DHT22;389;48.710;9.392;2022-08-19T10:36:54;22.80;99.90
814;DHT22;389;48.710;9.392;2022-08-19T10:39:19;22.80;99.90
814;DHT22;389;48.710;9.392;2022-08-19T10:41:45;22.80;99.90
814;DHT22;389;48.710;9.392;2022-08-19T10:44:12;22.90;99.90
814;DHT22;389;48.710;9.392;2022-08-19T10:46:43;22.90;99.90
814;DHT22;389;48.710;9.392;2022-08-19T10:49:12;22.90;99.90
814;DHT22;389;48.710;9.392;2022-08-19T10:51:39;22.90;99.90
814;DHT22;389;48.710;9.392;2022-08-19T10:54:24;22.90;99.90
814;DHT22;389;48.710;9.392;2022-08-19T10:57:09;23.00;99.90
814;DHT22;389;48.710;9.392;2022-08-19T10:59:35;22.90;99.90
814;DHT22;389;48.710;9.392;2022-08-19T11:02:03;22.90;99.90
814;DHT22;389;48.710;9.392;2022-08-19T11:04:29;22.90;99.90
814;DHT22;389;48.710;9.392;2022-08-19T11:06:55;22.90;99.90
814;DHT22;389;48.710;9.392;2022-08-19T11:09:23;22.90;99.90
814;DHT22;389;48.710;9.392;2022-08-19T11:11:58;22.90;99.90
814;DHT22;389;48.710;9.392;2022-08-19T11:14:24;22.90;99.90
814;DHT22;389;48.710;9.392;2022-08-19T11:16:51;22.90;99.90
814;DHT22;389;48.710;9.392;2022-08-19T11:19:18;22.80;99.90
814;DHT22;389;48.710;9.392;2022-08-19T11:21:47;22.80;99.90
814;DHT22;389;48.710;9.392;2022-08-19T11:24:24;22.60;99.90
814;DHT22;389;48.710;9.392;2022-08-19T11:26:51;22.70;99.90
814;DHT22;389;48.710;9.392;2022-08-19T11:29:19;22.50;99.90
814;DHT22;389;48.710;9.392;2022-08-19T11:31:47;22.50;99.90
814;DHT22;389;48.710;9.392;2022-08-19T11:34:17;22.40;99.90
814;DHT22;389;48.710;9.392;2022-08-19T11:36:44;22.40;99.90
814;DHT22;389;48.710;9.392;2022-08-19T11:39:13;22.40;99.90
814;DHT22;389;48.710;9.392;2022-08-19T11:41:39;22.50;99.90
814;DHT22;389;48.710;9.392;2022-08-19T11:44:05;22.40;99.90
814;DHT22;389;48.710;9.392;2022-08-19T11:46:34;22.40;99.90
814;DHT22;389;48.710;9.392;2022-08-19T11:49:01;22.40;99.90
814;DHT22;389;48.710;9.392;2022-08-19T11:51:27;22.60;99.90
814;DHT22;389;48.710;9.392;2022-08-19T11:53:54;22.60;99.90
814;DHT22;389;48.710;9.392;2022-08-19T11:56:21;22.50;99.90
814;DHT22;389;48.710;9.392;2022-08-19T11:58:47;22.60;99.90
814;DHT22;389;48.710;9.392;2022-08-19T12:01:15;22.40;99.90
814;DHT22;389;48.710;9.392;2022-08-19T12:03:42;22.40;99.90
814;DHT22;389;48.710;9.392;2022-08-19T12:06:10;22.40;99.90
814;DHT22;389;48.710;9.392;2022-08-19T12:08:38;22.40;99.90
814;DHT22;389;48.710;9.392;2022-08-19T12:11:04;22.40;99.90
814;DHT22;389;48.710;9.392;2022-08-19T12:13:30;22.40;99.90
814;DHT22;389;48.710;9.392;2022-08-19T12:15:56;22.30;99.90
814;DHT22;389;48.710;9.392;2022-08-19T12:18:22;22.30;99.90
814;DHT22;389;48.710;9.392;2022-08-19T12:20:50;22.30;99.90
814;DHT22;389;48.710;9.392;2022-08-19T12:23:16;22.30;99.90
814;DHT22;389;48.710;9.392;2022-08-19T12:25:47;22.30;99.90
814;DHT22;389;48.710;9.392;2022-08-19T12:28:18;22.30;99.90
814;DHT22;389;48.710;9.392;2022-08-19T12:30:43;22.30;99.90
814;DHT22;389;48.710;9.392;2022-08-19T12:33:09;22.20;99.90
814;DHT22;389;48.710;9.392;2022-08-19T12:35:35;22.20;99.90
814;DHT22;389;48.710;9.392;2022-08-19T12:38:00;22.20;99.90
814;DHT22;389;48.710;9.392;2022-08-19T12:40:28;22.20;99.90
814;DHT22;389;48.710;9.392;2022-08-19T12:42:54;22.20;99.90
814;DHT22;389;48.710;9.392;2022-08-19T12:45:20;22.20;99.90
814;DHT22;389;48.710;9.392;2022-08-19T12:47:45;22.30;99.90
814;DHT22;389;48.710;9.392;2022-08-19T12:50:12;22.20;99.90
814;DHT22;389;48.710;9.392;2022-08-19T12:52:37;22.20;99.90
814;DHT22;389;48.710;9.392;2022-08-19T12:55:05;22.20;99.90
814;DHT22;389;48.710;9.392;2022-08-19T12:57:31;22.20;99.90
814;DHT22;389;48.710;9.392;2022-08-19T13:00:10;22.10;99.90
814;DHT22;389;48.710;9.392;2022-08-19T13:02:39;22.20;99.90
814;DHT22;389;48.710;9.392;2022-08-19T13:05:08;22.00;99.90
814;DHT22;389;48.710;9.392;2022-08-19T13:07:36;22.00;99.90
814;DHT22;389;48.710;9.392;2022-08-19T13:10:03;22.00;99.90
814;DHT22;389;48.710;9.392;2022-08-19T13:12:28;21.90;99.90
814;DHT22;389;48.710;9.392;2022-08-19T13:14:55;21.90;99.90
814;DHT22;389;48.710;9.392;2022-08-19T13:17:21;21.80;99.90
814;DHT22;389;48.710;9.392;2022-08-19T13:19:47;21.80;99.90
814;DHT22;389;48.710;9.392;2022-08-19T13:22:13;21.70;99.90
814;DHT22;389;48.710;9.392;2022-08-19T13:24:38;21.70;99.90
814;DHT22;389;48.710;9.392;2022-08-19T13:27:04;21.60;99.90
814;DHT22;389;48.710;9.392;2022-08-19T13:29:30;21.60;99.90
814;DHT22;389;48.710;9.392;2022-08-19T13:32:14;21.50;99.90
814;DHT22;389;48.710;9.392;2022-08-19T13:34:58;21.50;99.90
814;DHT22;389;48.710;9.392;2022-08-19T13:37:24;21.50;99.90
814;DHT22;389;48.710;9.392;2022-08-19T13:40:14;21.50;99.90
814;DHT22;389;48.710;9.392;2022-08-19T13:42:43;21.50;99.90
814;DHT22;389;48.710;9.392;2022-08-19T13:45:09;21.40;99.90
814;DHT22;389;48.710;9.392;2022-08-19T13:47:36;21.40;99.90
814;DHT22;389;48.710;9.392;2022-08-19T13:50:08;21.30;99.90
814;DHT22;389;48.710;9.392;2022-08-19T13:52:35;21.20;99.90
814;DHT22;389;48.710;9.392;2022-08-19T13:55:00;21.20;99.90
814;DHT22;389;48.710;9.392;2022-08-19T13:57:26;21.10;99.90
814;DHT22;389;48.710;9.392;2022-08-19T13:59:51;21.10;99.90
814;DHT22;389;48.710;9.392;2022-08-19T14:02:17;21.10;99.90
814;DHT22;389;48.710;9.392;2022-08-19T14:04:42;21.10;99.90
814;DHT22;389;48.710;9.392;2022-08-19T14:07:08;21.10;99.90
814;DHT22;389;48.710;9.392;2022-08-19T14:09:34;21.20;99.90
814;DHT22;389;48.710;9.392;2022-08-19T14:12:00;21.20;99.90
814;DHT22;389;48.710;9.392;2022-08-19T14:14:26;21.20;99.90
814;DHT22;389;48.710;9.392;2022-08-19T14:16:51;21.30;99.90
814;DHT22;389;48.710;9.392;2022-08-19T14:19:17;21.30;99.90
814;DHT22;389;48.710;9.392;2022-08-19T14:21:44;21.30;99.90
814;DHT22;389;48.710;9.392;2022-08-19T14:24:09;21.30;99.90
814;DHT22;389;48.710;9.392;2022-08-19T14:26:35;21.30;99.90
814;DHT22;389;48.710;9.392;2022-08-19T14:29:00;21.40;99.90
814;DHT22;389;48.710;9.392;2022-08-19T14:31:27;21.40;99.90
814;DHT22;389;48.710;9.392;2022-08-19T14:33:52;21.40;99.90
814;DHT22;389;48.710;9.392;2022-08-19T14:36:19;21.50;99.90
814;DHT22;389;48.710;9.392;2022-08-19T14:38:46;21.50;99.90
814;DHT22;389;48.710;9.392;2022-08-19T14:41:19;21.60;99.90
814;DHT22;389;48.710;9.392;2022-08-19T14:43:46;21.60;99.90
814;DHT22;389;48.710;9.392;2022-08-19T14:46:18;21.70;99.90
814;DHT22;389;48.710;9.392;2022-08-19T14:48:45;21.80;99.90
814;DHT22;389;48.710;9.392;2022-08-19T14:51:11;21.80;99.90
814;DHT22;389;48.710;9.392;2022-08-19T14:53:37;22.00;99.90
814;DHT22;389;48.710;9.392;2022-08-19T14:56:11;22.20;99.90
814;DHT22;389;48.710;9.392;2022-08-19T14:58:37;22.20;99.90
814;DHT22;389;48.710;9.392;2022-08-19T15:01:03;22.30;99.90
814;DHT22;389;48.710;9.392;2022-08-19T15:03:29;22.30;99.90
814;DHT22;389;48.710;9.392;2022-08-19T15:05:56;22.50;99.90
814;DHT22;389;48.710;9.392;2022-08-19T15:08:22;22.50;99.90
814;DHT22;389;48.710;9.392;2022-08-19T15:10:50;22.50;99.90
814;DHT22;389;48.710;9.392;2022-08-19T15:13:16;22.50;99.90
814;DHT22;389;48.710;9.392;2022-08-19T15:15:42;22.50;99.90
814;DHT22;389;48.710;9.392;2022-08-19T15:18:08;22.50;99.90
814;DHT22;389;48.710;9.392;2022-08-19T15:20:33;22.50;99.90
814;DHT22;389;48.710;9.392;2022-08-19T15:22:59;22.40;99.90
814;DHT22;389;48.710;9.392;2022-08-19T15:25:26;22.40;99.90
814;DHT22;389;48.710;9.392;2022-08-19T15:27:52;22.40;99.90
814;DHT22;389;48.710;9.392;2022-08-19T15:30:27;22.40;99.90
814;DHT22;389;48.710;9.392;2022-08-19T15:32:55;22.30;99.90
814;DHT22;389;48.710;9.392;2022-08-19T15:35:21;22.30;99.90
814;DHT22;389;48.710;9.392;2022-08-19T15:37:52;22.30;99.90
814;DHT22;389;48.710;9.392;2022-08-19T15:40:19;22.40;99.90
814;DHT22;389;48.710;9.392;2022-08-19T15:42:45;22.40;99.90
814;DHT22;389;48.710;9.392;2022-08-19T15:45:13;22.40;99.90
814;DHT22;389;48.710;9.392;2022-08-19T15:47:39;22.40;99.90
814;DHT22;389;48.710;9.392;2022-08-19T15:50:16;22.40;99.90
814;DHT22;389;48.710;9.392;2022-08-19T15:52:50;22.40;99.90
814;DHT22;389;48.710;9.392;2022-08-19T15:55:19;22.30;99.90
814;DHT22;389;48.710;9.392;2022-08-19T15:57:45;22.30;99.90
814;DHT22;389;48.710;9.392;2022-08-19T16:00:30;22.40;99.90
814;DHT22;389;48.710;9.392;2022-08-19T16:03:15;22.30;99.90
814;DHT22;389;48.710;9.392;2022-08-19T16:06:00;22.20;99.90
814;DHT22;389;48.710;9.392;2022-08-19T16:08:44;22.20;99.90
814;DHT22;389;48.710;9.392;2022-08-19T16:11:13;22.10;99.90
814;DHT22;389;48.710;9.392;2022-08-19T16:13:40;22.00;99.90
814;DHT22;389;48.710;9.392;2022-08-19T16:16:06;22.00;99.90
814;DHT22;389;48.710;9.392;2022-08-19T16:18:32;21.90;99.90
814;DHT22;389;48.710;9.392;2022-08-19T16:21:04;22.00;99.90
814;DHT22;389;48.710;9.392;2022-08-19T16:23:30;21.90;99.90
814;DHT22;389;48.710;9.392;2022-08-19T16:25:55;21.90;99.90
814;DHT22;389;48.710;9.392;2022-08-19T16:28:21;21.90;99.90
814;DHT22;389;48.710;9.392;2022-08-19T16:30:47;21.90;99.90
814;DHT22;389;48.710;9.392;2022-08-19T16:33:13;22.10;99.90
814;DHT22;389;48.710;9.392;2022-08-19T16:35:39;22.10;99.90
814;DHT22;389;48.710;9.392;2022-08-19T16:38:04;22.10;99.90
814;DHT22;389;48.710;9.392;2022-08-19T16:40:31;22.20;99.90
814;DHT22;389;48.710;9.392;2022-08-19T16:42:57;22.30;99.90
814;DHT22;389;48.710;9.392;2022-08-19T16:45:23;22.40;99.90
814;DHT22;389;48.710;9.392;2022-08-19T16:47:49;22.30;99.90
814;DHT22;389;48.710;9.392;2022-08-19T16:50:15;22.30;99.90
814;DHT22;389;48.710;9.392;2022-08-19T16:52:41;22.30;99.90
814;DHT22;389;48.710;9.392;2022-08-19T16:55:07;22.30;99.90
814;DHT22;389;48.710;9.392;2022-08-19T16:57:33;22.30;99.90
814;DHT22;389;48.710;9.392;2022-08-19T16:59:59;22.20;99.90
814;DHT22;389;48.710;9.392;2022-08-19T17:02:29;22.20;99.90
814;DHT22;389;48.710;9.392;2022-08-19T17:04:55;22.20;99.90
814;DHT22;389;48.710;9.392;2022-08-19T17:07:20;22.20;99.90
814;DHT22;389;48.710;9.392;2022-08-19T17:09:46;22.10;99.90
814;DHT22;389;48.710;9.392;2022-08-19T17:12:12;22.10;99.90
814;DHT22;389;48.710;9.392;2022-08-19T17:14:37;22.10;99.90
814;DHT22;389;48.710;9.392;2022-08-19T17:17:03;22.10;99.90
814;DHT22;389;48.710;9.392;2022-08-19T17:19:29;22.10;99.90
814;DHT22;389;48.710;9.392;2022-08-19T17:21:54;22.10;99.90
814;DHT22;389;48.710;9.392;2022-08-19T17:24:21;22.00;99.90
814;DHT22;389;48.710;9.392;2022-08-19T17:26:47;22.00;99.90
814;DHT22;389;48.710;9.392;2022-08-19T17:29:12;22.00;99.90
814;DHT22;389;48.710;9.392;2022-08-19T17:31:38;22.00;99.90
814;DHT22;389;48.710;9.392;2022-08-19T17:34:10;21.90;99.90
814;DHT22;389;48.710;9.392;2022-08-19T17:36:36;22.00;99.90
814;DHT22;389;48.710;9.392;2022-08-19T17:39:03;22.00;99.90
814;DHT22;389;48.710;9.392;2022-08-19T17:41:29;22.00;99.90
814;DHT22;389;48.710;9.392;2022-08-19T17:43:55;22.00;99.90
814;DHT22;389;48.710;9.392;2022-08-19T17:46:21;22.00;99.90
814;DHT22;389;48.710;9.392;2022-08-19T17:48:48;21.90;99.90
814;DHT22;389;48.710;9.392;2022-08-19T17:51:17;22.00;99.90
814;DHT22;389;48.710;9.392;2022-08-19T17:53:48;22.00;99.90
814;DHT22;389;48.710;9.392;2022-08-19T17:56:15;22.00;99.90
814;DHT22;389;48.710;9.392;2022-08-19T17:58:43;22.00;99.90
814;DHT22;389;48.710;9.392;2022-08-19T18:01:10;22.10;99.90
814;DHT22;389;48.710;9.392;2022-08-19T18:03:39;22.00;99.90
814;DHT22;389;48.710;9.392;2022-08-19T18:06:05;22.10;99.90
814;DHT22;389;48.710;9.392;2022-08-19T18:08:31;21.90;99.90
814;DHT22;389;48.710;9.392;2022-08-19T18:10:58;21.90;99.90
814;DHT22;389;48.710;9.392;2022-08-19T18:13:24;21.90;99.90
814;DHT22;389;48.710;9.392;2022-08-19T18:15:49;21.90;99.90
814;DHT22;389;48.710;9.392;2022-08-19T18:18:15;21.80;99.90
814;DHT22;389;48.710;9.392;2022-08-19T18:20:41;21.80;99.90
814;DHT22;389;48.710;9.392;2022-08-19T18:23:07;21.80;99.90
814;DHT22;389;48.710;9.392;2022-08-19T18:25:33;21.70;99.90
814;DHT22;389;48.710;9.392;2022-08-19T18:27:59;21.70;99.90
814;DHT22;389;48.710;9.392;2022-08-19T18:30:28;21.60;99.90
814;DHT22;389;48.710;9.392;2022-08-19T18:33:00;21.60;99.90
814;DHT22;389;48.710;9.392;2022-08-19T18:35:29;21.50;99.90
814;DHT22;389;48.710;9.392;2022-08-19T18:38:01;21.40;99.90
814;DHT22;389;48.710;9.392;2022-08-19T18:40:46;21.30;99.90
814;DHT22;389;48.710;9.392;2022-08-19T18:43:31;21.20;99.90
814;DHT22;389;48.710;9.392;2022-08-19T18:46:15;21.10;99.90
814;DHT22;389;48.710;9.392;2022-08-19T18:48:59;21.10;99.90
814;DHT22;389;48.710;9.392;2022-08-19T18:51:31;21.00;99.90
814;DHT22;389;48.710;9.392;2022-08-19T18:53:58;20.90;99.90
814;DHT22;389;48.710;9.392;2022-08-19T18:56:24;20.90;99.90
814;DHT22;389;48.710;9.392;2022-08-19T18:58:54;20.80;99.90
814;DHT22;389;48.710;9.392;2022-08-19T19:01:26;20.70;99.90
814;DHT22;389;48.710;9.392;2022-08-19T19:03:54;20.70;99.90
814;DHT22;389;48.710;9.392;2022-08-19T19:06:27;20.70;99.90
814;DHT22;389;48.710;9.392;2022-08-19T19:08:54;20.50;99.90
814;DHT22;389;48.710;9.392;2022-08-19T19:11:32;20.50;99.90
814;DHT22;389;48.710;9.392;2022-08-19T19:13:58;20.40;99.90
814;DHT22;389;48.710;9.392;2022-08-19T19:16:27;20.50;99.90
814;DHT22;389;48.710;9.392;2022-08-19T19:18:53;20.30;99.90
814;DHT22;389;48.710;9.392;2022-08-19T19:21:23;20.30;99.90
814;DHT22;389;48.710;9.392;2022-08-19T19:23:53;20.20;99.90
814;DHT22;389;48.710;9.392;2022-08-19T19:26:19;20.20;99.90
814;DHT22;389;48.710;9.392;2022-08-19T19:28:46;20.20;99.90
814;DHT22;389;48.710;9.392;2022-08-19T19:31:23;20.20;99.90
814;DHT22;389;48.710;9.392;2022-08-19T19:33:54;20.20;99.90
814;DHT22;389;48.710;9.392;2022-08-19T19:36:21;20.20;99.90